createdAt,value
2022-11-26T00:01:22.667Z,8.29
2022-11-26T00:03:53.315Z,8.32
2022-11-26T00:06:24.533Z,8.31
2022-11-26T00:08:51.209Z,8.37
2022-11-26T00:11:17.775Z,8.32
2022-11-26T00:13:44.314Z,8.30
2022-11-26T00:16:13.657Z,8.30
2022-11-26T00:18:41.832Z,8.29
2022-11-26T00:21:20.385Z,8.29
2022-11-26T00:23:47.245Z,8.28
2022-11-26T00:26:18.295Z,8.30
2022-11-26T00:28:54.663Z,8.29
2022-11-26T00:31:21.724Z,8.29
2022-11-26T00:33:51.018Z,8.30
2022-11-26T00:36:26.191Z,8.31
2022-11-26T00:39:03.211Z,8.33
2022-11-26T00:41:33.786Z,8.32
2022-11-26T00:44:00.671Z,8.33
2022-11-26T00:46:27.432Z,8.30
2022-11-26T00:48:53.872Z,8.28
2022-11-26T00:51:23.663Z,8.27
2022-11-26T00:53:51.871Z,8.28
2022-11-26T00:56:20.700Z,8.26
2022-11-26T00:58:49.013Z,8.23
2022-11-26T01:01:37.654Z,8.17
2022-11-26T01:04:04.430Z,8.14
2022-11-26T01:06:34.126Z,8.10
2022-11-26T01:09:00.770Z,8.11
2022-11-26T01:11:28.632Z,8.08
2022-11-26T01:13:55.688Z,8.08
2022-11-26T01:16:22.281Z,8.06
2022-11-26T01:18:51.424Z,7.99
2022-11-26T01:21:18.714Z,7.96
2022-11-26T01:23:46.156Z,7.97
2022-11-26T01:26:18.693Z,7.95
2022-11-26T01:28:45.769Z,7.96
2022-11-26T01:31:21.587Z,7.94
2022-11-26T01:33:48.620Z,7.94
2022-11-26T01:36:23.148Z,7.92
2022-11-26T01:39:11.170Z,7.90
2022-11-26T01:41:52.072Z,7.94
2022-11-26T01:44:27.764Z,7.93
2022-11-26T01:47:22.393Z,7.87
2022-11-26T01:50:46.077Z,7.85
2022-11-26T01:53:19.100Z,7.84
2022-11-26T01:55:50.091Z,7.80
2022-11-26T01:58:28.610Z,7.82
2022-11-26T02:00:55.773Z,7.79
2022-11-26T02:03:23.072Z,7.80
2022-11-26T02:06:14.562Z,7.81
2022-11-26T02:08:41.399Z,7.84
2022-11-26T02:11:27.189Z,7.82
2022-11-26T02:14:01.194Z,7.79
2022-11-26T02:17:04.917Z,7.75
2022-11-26T02:19:43.670Z,7.72
2022-11-26T02:22:37.677Z,7.63
2022-11-26T02:25:22.804Z,7.62
2022-11-26T02:28:04.062Z,7.59
2022-11-26T02:30:36.505Z,7.60
2022-11-26T02:33:12.425Z,7.63
2022-11-26T02:35:38.842Z,7.67
2022-11-26T02:38:17.879Z,7.68
2022-11-26T02:40:44.407Z,7.67
2022-11-26T02:43:12.288Z,7.69
2022-11-26T02:45:42.462Z,7.68
2022-11-26T02:48:13.742Z,7.67
2022-11-26T02:50:47.305Z,7.70
2022-11-26T02:53:21.367Z,7.73
2022-11-26T02:55:52.999Z,7.73
2022-11-26T02:58:20.197Z,7.71
2022-11-26T03:00:53.299Z,7.64
2022-11-26T03:03:27.907Z,7.61
2022-11-26T03:05:59.985Z,7.61
2022-11-26T03:08:27.344Z,7.65
2022-11-26T03:10:57.168Z,7.64
2022-11-26T03:13:23.687Z,7.64
2022-11-26T03:15:52.689Z,7.64
2022-11-26T03:18:19.188Z,7.66
2022-11-26T03:20:45.730Z,7.68
2022-11-26T03:23:12.322Z,7.68
2022-11-26T03:25:38.916Z,7.67
2022-11-26T03:28:05.920Z,7.69
2022-11-26T03:30:35.826Z,7.69
2022-11-26T03:33:02.418Z,7.71
2022-11-26T03:35:29.077Z,7.73
2022-11-26T03:37:55.759Z,7.70
2022-11-26T03:40:25.493Z,7.65
2022-11-26T03:42:52.026Z,7.64
2022-11-26T03:45:18.786Z,7.67
2022-11-26T03:47:45.316Z,7.69
2022-11-26T03:50:12.134Z,7.69
2022-11-26T03:52:38.653Z,7.70
2022-11-26T03:55:06.085Z,7.69
2022-11-26T03:57:32.632Z,7.68
2022-11-26T03:59:59.096Z,7.66
2022-11-26T04:02:25.651Z,7.61
2022-11-26T04:04:52.163Z,7.61
2022-11-26T04:07:18.703Z,7.58
2022-11-26T04:09:45.237Z,7.53
2022-11-26T04:12:11.674Z,7.51
2022-11-26T04:14:38.447Z,7.50
2022-11-26T04:17:05.160Z,7.47
2022-11-26T04:19:31.709Z,7.46
2022-11-26T04:21:58.276Z,7.41
2022-11-26T04:24:24.766Z,7.38
2022-11-26T04:26:51.239Z,7.38
2022-11-26T04:29:17.846Z,7.35
2022-11-26T04:31:47.294Z,7.32
2022-11-26T04:34:16.514Z,7.31
2022-11-26T04:36:42.994Z,7.24
2022-11-26T04:39:12.743Z,7.16
2022-11-26T04:41:39.226Z,7.14
2022-11-26T04:44:05.818Z,7.20
2022-11-26T04:46:32.331Z,7.16
2022-11-26T04:48:58.872Z,7.19
2022-11-26T04:51:28.800Z,7.16
2022-11-26T04:53:55.880Z,7.12
2022-11-26T04:56:22.895Z,7.13
2022-11-26T04:58:49.386Z,7.10
2022-11-26T05:01:15.930Z,7.10
2022-11-26T05:03:42.774Z,7.06
2022-11-26T05:06:10.749Z,7.02
2022-11-26T05:08:41.895Z,7.01
2022-11-26T05:11:08.444Z,6.97
2022-11-26T05:13:34.920Z,6.95
2022-11-26T05:16:04.897Z,6.90
2022-11-26T05:18:31.375Z,6.87
2022-11-26T05:21:01.188Z,6.87
2022-11-26T05:23:27.688Z,6.88
2022-11-26T05:25:54.169Z,6.86
2022-11-26T05:28:20.764Z,6.84
2022-11-26T05:30:47.797Z,6.81
2022-11-26T05:33:14.389Z,6.73
2022-11-26T05:35:41.015Z,6.71
2022-11-26T05:38:07.544Z,6.73
2022-11-26T05:40:34.135Z,6.72
2022-11-26T05:43:00.779Z,6.78
2022-11-26T05:45:27.309Z,6.77
2022-11-26T05:47:53.880Z,6.79
2022-11-26T05:50:20.400Z,6.76
2022-11-26T05:52:46.973Z,6.73
2022-11-26T05:55:13.533Z,6.70
2022-11-26T05:57:40.012Z,6.67
2022-11-26T06:00:08.521Z,6.63
2022-11-26T06:02:35.100Z,6.58
2022-11-26T06:05:06.626Z,6.57
2022-11-26T06:07:33.358Z,6.59
2022-11-26T06:09:59.918Z,6.58
2022-11-26T06:12:26.417Z,6.53
2022-11-26T06:14:53.467Z,6.53
2022-11-26T06:17:20.651Z,6.51
2022-11-26T06:19:47.266Z,6.49
2022-11-26T06:22:13.713Z,6.43
2022-11-26T06:24:40.362Z,6.40
2022-11-26T06:27:07.262Z,6.35
2022-11-26T06:29:33.920Z,6.33
2022-11-26T06:32:00.452Z,6.29
2022-11-26T06:34:27.038Z,6.25
2022-11-26T06:36:53.753Z,6.22
2022-11-26T06:39:20.234Z,6.16
2022-11-26T06:41:46.768Z,6.17
2022-11-26T06:44:16.271Z,6.21
2022-11-26T06:46:42.787Z,6.17
2022-11-26T06:49:10.167Z,6.19
2022-11-26T06:51:36.708Z,6.14
2022-11-26T06:54:03.190Z,6.11
2022-11-26T06:56:29.687Z,6.07
2022-11-26T06:58:56.337Z,6.08
2022-11-26T07:01:26.110Z,6.06
2022-11-26T07:03:53.529Z,6.04
2022-11-26T07:06:23.263Z,6.05
2022-11-26T07:08:51.547Z,6.09
2022-11-26T07:11:18.387Z,6.19
2022-11-26T07:13:45.180Z,6.26
2022-11-26T07:16:12.723Z,6.29
2022-11-26T07:18:42.172Z,6.30
2022-11-26T07:21:12.195Z,6.34
2022-11-26T07:23:39.751Z,6.31
2022-11-26T07:26:07.303Z,6.31
2022-11-26T07:28:34.995Z,6.33
2022-11-26T07:31:11.574Z,6.35
2022-11-26T07:33:41.980Z,6.36
2022-11-26T07:36:18.204Z,6.40
2022-11-26T07:38:48.281Z,6.44
2022-11-26T07:41:17.841Z,6.44
2022-11-26T07:43:45.223Z,6.48
2022-11-26T07:46:14.388Z,6.51
2022-11-26T07:48:41.002Z,6.52
2022-11-26T07:51:15.493Z,6.57
2022-11-26T07:53:41.981Z,6.63
2022-11-26T07:56:08.642Z,6.62
2022-11-26T07:58:35.485Z,6.69
2022-11-26T08:01:19.182Z,6.74
2022-11-26T08:03:48.268Z,6.74
2022-11-26T08:06:26.119Z,6.81
2022-11-26T08:08:52.681Z,6.87
2022-11-26T08:11:24.636Z,6.93
2022-11-26T08:13:58.451Z,7.00
2022-11-26T08:16:28.447Z,7.05
2022-11-26T08:18:57.518Z,7.10
2022-11-26T08:21:27.374Z,7.14
2022-11-26T08:23:57.452Z,7.21
2022-11-26T08:26:33.507Z,7.27
2022-11-26T08:29:03.298Z,7.38
2022-11-26T08:31:33.062Z,7.42
2022-11-26T08:34:03.606Z,7.49
2022-11-26T08:36:31.354Z,7.57
2022-11-26T08:39:01.218Z,7.61
2022-11-26T08:41:29.767Z,7.68
2022-11-26T08:44:11.691Z,7.80
2022-11-26T08:46:42.065Z,7.87
2022-11-26T08:49:12.245Z,7.95
2022-11-26T08:51:39.084Z,8.01
2022-11-26T08:54:08.631Z,8.14
2022-11-26T08:56:35.766Z,8.24
2022-11-26T08:59:02.902Z,8.20
2022-11-26T09:01:32.532Z,8.09
2022-11-26T09:04:02.663Z,8.03
2022-11-26T09:06:31.228Z,7.95
2022-11-26T09:09:13.236Z,7.88
2022-11-26T09:11:42.888Z,7.81
2022-11-26T09:14:11.248Z,7.73
2022-11-26T09:16:38.435Z,7.75
2022-11-26T09:19:06.621Z,7.90
2022-11-26T09:21:36.943Z,7.98
2022-11-26T09:24:03.966Z,7.91
2022-11-26T09:26:34.312Z,8.08
2022-11-26T09:29:01.675Z,8.21
2022-11-26T09:31:30.204Z,8.27
2022-11-26T09:33:58.512Z,8.28
2022-11-26T09:36:25.229Z,8.36
2022-11-26T09:38:59.039Z,8.45
2022-11-26T09:41:47.480Z,8.47
2022-11-26T09:44:38.429Z,8.54
2022-11-26T09:47:13.219Z,8.63
2022-11-26T09:49:58.684Z,8.59
2022-11-26T09:52:37.790Z,8.69
2022-11-26T09:55:14.450Z,8.80
2022-11-26T09:57:47.552Z,8.96
2022-11-26T10:00:23.087Z,9.08
2022-11-26T10:02:55.279Z,9.08
2022-11-26T10:05:27.363Z,9.07
2022-11-26T10:07:56.854Z,9.12
2022-11-26T10:10:38.070Z,9.08
2022-11-26T10:13:32.867Z,9.04
2022-11-26T10:15:59.513Z,8.99
2022-11-26T10:18:26.056Z,8.99
2022-11-26T10:21:14.170Z,9.04
2022-11-26T10:23:46.180Z,9.02
2022-11-26T10:26:23.432Z,9.03
2022-11-26T10:29:13.657Z,9.04
2022-11-26T10:31:42.647Z,9.03
2022-11-26T10:34:16.682Z,8.96
2022-11-26T10:36:45.874Z,8.94
2022-11-26T10:39:15.453Z,9.02
2022-11-26T10:41:42.005Z,9.02
2022-11-26T10:44:28.146Z,9.04
2022-11-26T10:46:55.149Z,9.00
2022-11-26T10:49:23.802Z,8.94
2022-11-26T10:52:07.993Z,8.97
2022-11-26T10:54:37.535Z,8.99
2022-11-26T10:57:10.298Z,8.98
2022-11-26T10:59:53.387Z,8.96
2022-11-26T11:02:19.847Z,8.98
2022-11-26T11:04:51.533Z,9.02
2022-11-26T11:07:39.987Z,8.99
2022-11-26T11:10:09.583Z,8.98
2022-11-26T11:12:41.380Z,9.06
2022-11-26T11:15:29.419Z,9.09
2022-11-26T11:18:01.224Z,9.07
2022-11-26T11:20:30.686Z,9.01
2022-11-26T11:23:19.997Z,8.94
2022-11-26T11:25:58.402Z,8.93
2022-11-26T11:28:28.253Z,8.92
2022-11-26T11:31:20.819Z,8.99
2022-11-26T11:33:48.905Z,8.86
2022-11-26T11:36:15.458Z,8.79
2022-11-26T11:38:50.652Z,8.75
2022-11-26T11:41:32.273Z,8.63
2022-11-26T11:44:23.103Z,8.59
2022-11-26T11:47:01.011Z,8.61
2022-11-26T11:49:46.196Z,8.62
2022-11-26T11:52:15.716Z,8.66
2022-11-26T11:55:10.487Z,8.66
2022-11-26T11:58:12.397Z,8.70
2022-11-26T12:01:06.601Z,8.69
2022-11-26T12:03:51.870Z,8.74
2022-11-26T12:06:41.615Z,8.73
2022-11-26T12:09:44.353Z,8.75
2022-11-26T12:12:27.077Z,8.67
2022-11-26T12:15:01.536Z,8.61
2022-11-26T12:17:43.508Z,8.65
2022-11-26T12:20:32.044Z,8.69
2022-11-26T12:23:24.834Z,8.73
2022-11-26T12:26:06.197Z,8.71
2022-11-26T12:28:43.212Z,8.68
2022-11-26T12:31:44.290Z,8.70
2022-11-26T12:34:25.481Z,8.70
2022-11-26T12:37:15.462Z,8.72
2022-11-26T12:39:56.666Z,8.71
2022-11-26T12:42:30.182Z,8.68
2022-11-26T12:45:04.286Z,8.72
2022-11-26T12:47:46.652Z,8.74
2022-11-26T12:50:16.187Z,8.76
2022-11-26T12:53:07.463Z,8.79
2022-11-26T12:55:56.869Z,8.81
2022-11-26T12:58:49.102Z,8.81
2022-11-26T13:01:15.931Z,8.81
2022-11-26T13:03:46.111Z,8.81
2022-11-26T13:07:03.292Z,8.81
2022-11-26T13:09:54.707Z,8.84
2022-11-26T13:12:45.359Z,8.87
2022-11-26T13:15:25.062Z,8.90
2022-11-26T13:17:55.134Z,8.90
2022-11-26T13:20:35.948Z,8.92
2022-11-26T13:23:22.251Z,8.91
2022-11-26T13:26:10.518Z,8.87
2022-11-26T13:29:19.920Z,8.89
2022-11-26T13:32:26.044Z,8.89
2022-11-26T13:35:04.513Z,8.87
2022-11-26T13:37:45.519Z,8.87
2022-11-26T13:40:57.387Z,8.85
2022-11-26T13:43:53.647Z,8.78
2022-11-26T13:46:22.351Z,8.77
2022-11-26T13:49:31.048Z,8.71
2022-11-26T13:52:08.590Z,8.67
2022-11-26T13:54:51.374Z,8.63
2022-11-26T13:57:31.540Z,8.60
2022-11-26T13:59:59.114Z,8.52
2022-11-26T14:02:34.771Z,8.47
2022-11-26T14:05:05.019Z,8.43
2022-11-26T14:07:31.666Z,8.39
2022-11-26T14:10:04.406Z,8.36
2022-11-26T14:13:01.687Z,8.34
2022-11-26T14:15:43.578Z,8.31
2022-11-26T14:18:14.724Z,8.27
2022-11-26T14:21:03.813Z,8.21
2022-11-26T14:23:47.391Z,8.15
2022-11-26T14:26:19.412Z,8.09
2022-11-26T14:28:45.791Z,8.07
2022-11-26T14:31:23.402Z,8.04
2022-11-26T14:33:57.093Z,8.00
2022-11-26T14:36:29.368Z,7.97
2022-11-26T14:39:22.909Z,7.95
2022-11-26T14:41:49.422Z,7.91
2022-11-26T14:44:17.674Z,7.88
2022-11-26T14:46:54.298Z,7.82
2022-11-26T14:49:24.184Z,7.79
2022-11-26T14:51:53.533Z,7.77
2022-11-26T14:54:28.318Z,7.73
2022-11-26T14:56:57.267Z,7.71
2022-11-26T14:59:27.350Z,7.66
2022-11-26T15:01:53.941Z,7.60
2022-11-26T15:04:25.660Z,7.60
2022-11-26T15:06:52.329Z,7.59
2022-11-26T15:09:21.660Z,7.57
2022-11-26T15:11:57.639Z,7.50
2022-11-26T15:14:27.092Z,7.45
2022-11-26T15:17:05.556Z,7.44
2022-11-26T15:19:38.357Z,7.45
2022-11-26T15:22:22.018Z,7.43
2022-11-26T15:24:52.878Z,7.40
2022-11-26T15:27:39.589Z,7.38
2022-11-26T15:30:30.710Z,7.36
2022-11-26T15:33:09.429Z,7.37
2022-11-26T15:35:36.617Z,7.35
2022-11-26T15:38:12.912Z,7.33
2022-11-26T15:40:49.956Z,7.35
2022-11-26T15:43:23.023Z,7.35
2022-11-26T15:45:53.721Z,7.39
2022-11-26T15:48:29.829Z,7.38
2022-11-26T15:51:29.424Z,7.37
2022-11-26T15:53:59.499Z,7.32
2022-11-26T15:56:32.321Z,7.29
2022-11-26T15:59:03.200Z,7.27
2022-11-26T16:01:34.595Z,7.22
2022-11-26T16:04:06.595Z,7.18
2022-11-26T16:06:37.659Z,7.22
2022-11-26T16:09:06.456Z,7.16
2022-11-26T16:11:36.704Z,7.11
2022-11-26T16:14:30.847Z,7.11
2022-11-26T16:17:07.847Z,7.06
2022-11-26T16:19:35.046Z,7.07
2022-11-26T16:22:04.124Z,7.03
2022-11-26T16:24:43.663Z,6.99
2022-11-26T16:27:20.720Z,6.95
2022-11-26T16:29:47.524Z,6.93
2022-11-26T16:32:16.281Z,6.94
2022-11-26T16:34:43.294Z,6.84
2022-11-26T16:37:20.727Z,6.71
2022-11-26T16:39:49.909Z,6.73
2022-11-26T16:42:19.539Z,6.73
2022-11-26T16:44:46.124Z,6.71
2022-11-26T16:47:36.883Z,6.72
2022-11-26T16:50:03.737Z,6.71
2022-11-26T16:52:40.891Z,6.64
2022-11-26T16:55:11.346Z,6.48
2022-11-26T16:57:41.380Z,6.43
2022-11-26T17:00:13.929Z,6.41
2022-11-26T17:02:40.675Z,6.44
2022-11-26T17:05:07.555Z,6.29
2022-11-26T17:07:40.738Z,6.30
2022-11-26T17:10:11.199Z,6.29
2022-11-26T17:12:37.711Z,6.32
2022-11-26T17:15:04.697Z,6.44
2022-11-26T17:17:31.199Z,6.47
2022-11-26T17:19:57.756Z,6.43
2022-11-26T17:22:25.339Z,6.46
2022-11-26T17:24:51.965Z,6.44
2022-11-26T17:27:20.663Z,6.45
2022-11-26T17:29:47.706Z,6.43
2022-11-26T17:32:17.088Z,6.38
2022-11-26T17:34:45.363Z,6.32
2022-11-26T17:37:20.324Z,6.23
2022-11-26T17:39:46.859Z,6.29
2022-11-26T17:42:13.307Z,6.36
2022-11-26T17:44:39.862Z,6.40
2022-11-26T17:47:17.222Z,6.41
2022-11-26T17:49:45.523Z,6.45
2022-11-26T17:52:12.466Z,6.47
2022-11-26T17:54:39.420Z,6.44
2022-11-26T17:57:06.562Z,6.44
2022-11-26T17:59:33.386Z,6.40
2022-11-26T18:02:01.702Z,6.36
2022-11-26T18:04:28.724Z,6.34
2022-11-26T18:07:05.523Z,6.36
2022-11-26T18:09:32.971Z,6.40
2022-11-26T18:12:00.264Z,6.39
2022-11-26T18:14:27.620Z,6.37
2022-11-26T18:16:54.711Z,6.42
2022-11-26T18:19:23.380Z,6.45
2022-11-26T18:21:50.878Z,6.49
2022-11-26T18:24:18.046Z,6.29
2022-11-26T18:26:44.558Z,6.19
2022-11-26T18:29:13.128Z,6.21
2022-11-26T18:31:40.149Z,6.13
2022-11-26T18:34:07.722Z,6.07
2022-11-26T18:36:34.286Z,5.99
2022-11-26T18:39:06.314Z,6.01
2022-11-26T18:41:35.731Z,5.94
2022-11-26T18:44:04.003Z,5.87
2022-11-26T18:46:30.625Z,5.80
2022-11-26T18:48:58.324Z,5.91
2022-11-26T18:51:24.978Z,6.01
2022-11-26T18:53:51.741Z,5.96
2022-11-26T18:56:23.464Z,5.85
2022-11-26T18:58:50.890Z,5.83
2022-11-26T19:01:21.774Z,5.75
2022-11-26T19:03:50.987Z,5.77
2022-11-26T19:06:20.581Z,5.75
2022-11-26T19:08:48.162Z,5.68
2022-11-26T19:11:20.723Z,5.76
2022-11-26T19:13:51.331Z,5.72
2022-11-26T19:16:21.843Z,5.63
2022-11-26T19:18:48.799Z,5.75
2022-11-26T19:21:20.987Z,5.78
2022-11-26T19:23:50.940Z,5.79
2022-11-26T19:26:18.672Z,5.76
2022-11-26T19:28:45.242Z,5.76
2022-11-26T19:31:17.391Z,5.77
2022-11-26T19:33:46.448Z,5.83
2022-11-26T19:36:18.688Z,5.81
2022-11-26T19:38:45.410Z,5.69
2022-11-26T19:41:12.546Z,5.68
2022-11-26T19:43:41.083Z,5.76
2022-11-26T19:46:09.368Z,5.82
2022-11-26T19:48:37.864Z,5.88
2022-11-26T19:51:05.922Z,5.79
2022-11-26T19:53:33.301Z,5.76
2022-11-26T19:56:21.062Z,5.75
2022-11-26T19:58:47.702Z,5.70
2022-11-26T20:01:15.970Z,5.56
2022-11-26T20:03:43.444Z,5.44
2022-11-26T20:06:17.053Z,5.35
2022-11-26T20:08:44.464Z,5.35
2022-11-26T20:11:11.382Z,5.36
2022-11-26T20:13:43.598Z,5.41
2022-11-26T20:16:14.099Z,5.44
2022-11-26T20:18:43.770Z,5.50
2022-11-26T20:21:13.187Z,5.53
2022-11-26T20:23:40.168Z,5.42
2022-11-26T20:26:19.006Z,5.52
2022-11-26T20:28:45.906Z,5.66
2022-11-26T20:31:21.869Z,5.76
2022-11-26T20:33:53.210Z,5.87
2022-11-26T20:36:25.406Z,5.94
2022-11-26T20:38:57.117Z,5.91
2022-11-26T20:41:26.470Z,5.88
2022-11-26T20:43:59.169Z,5.92
2022-11-26T20:46:26.858Z,5.89
2022-11-26T20:48:53.377Z,5.90
2022-11-26T20:51:22.013Z,5.87
2022-11-26T20:53:52.133Z,5.85
2022-11-26T20:56:21.079Z,5.82
2022-11-26T20:58:48.101Z,5.79
2022-11-26T21:01:21.432Z,5.73
2022-11-26T21:03:48.388Z,5.69
2022-11-26T21:06:16.897Z,5.74
2022-11-26T21:08:43.877Z,5.88
2022-11-26T21:11:11.659Z,6.05
2022-11-26T21:13:39.237Z,6.13
2022-11-26T21:16:10.406Z,6.20
2022-11-26T21:18:37.144Z,6.23
2022-11-26T21:21:14.518Z,6.21
2022-11-26T21:23:42.436Z,6.26
2022-11-26T21:26:12.189Z,6.28
2022-11-26T21:28:38.761Z,6.23
2022-11-26T21:31:10.526Z,6.20
2022-11-26T21:33:37.024Z,6.20
2022-11-26T21:36:10.460Z,6.14
2022-11-26T21:38:37.555Z,6.12
2022-11-26T21:41:10.926Z,6.11
2022-11-26T21:43:37.911Z,6.06
2022-11-26T21:46:06.656Z,6.06
2022-11-26T21:48:35.568Z,6.05
2022-11-26T21:51:10.078Z,6.08
2022-11-26T21:53:36.646Z,6.09
2022-11-26T21:56:09.271Z,6.11
2022-11-26T21:58:37.117Z,6.11
2022-11-26T22:01:16.041Z,6.12
2022-11-26T22:03:48.351Z,6.08
2022-11-26T22:06:16.205Z,6.09
2022-11-26T22:08:47.358Z,6.05
2022-11-26T22:11:17.965Z,5.94
2022-11-26T22:13:45.137Z,5.76
2022-11-26T22:16:13.962Z,5.70
2022-11-26T22:18:44.472Z,5.71
2022-11-26T22:21:16.831Z,5.71
2022-11-26T22:23:43.625Z,5.64
2022-11-26T22:26:10.327Z,5.58
2022-11-26T22:28:38.614Z,5.57
2022-11-26T22:31:20.631Z,5.36
2022-11-26T22:33:48.119Z,5.15
2022-11-26T22:36:14.721Z,5.17
2022-11-26T22:38:42.081Z,5.23
2022-11-26T22:41:11.772Z,5.21
2022-11-26T22:43:42.741Z,5.19
2022-11-26T22:46:19.915Z,5.29
2022-11-26T22:49:01.154Z,5.40
2022-11-26T22:51:29.943Z,5.49
2022-11-26T22:54:04.740Z,5.52
2022-11-26T22:56:31.464Z,5.50
2022-11-26T22:59:01.373Z,5.58
2022-11-26T23:01:30.955Z,5.71
2022-11-26T23:03:59.436Z,5.77
2022-11-26T23:06:32.745Z,5.71
2022-11-26T23:09:00.436Z,5.62
2022-11-26T23:11:30.024Z,5.58
2022-11-26T23:13:57.027Z,5.56
2022-11-26T23:16:26.008Z,5.44
2022-11-26T23:18:57.232Z,5.41
2022-11-26T23:21:26.777Z,5.31
2022-11-26T23:23:53.728Z,5.28
2022-11-26T23:26:27.896Z,5.28
2022-11-26T23:28:56.006Z,5.16
2022-11-26T23:31:26.204Z,4.94
2022-11-26T23:33:53.630Z,4.88
2022-11-26T23:36:20.666Z,4.78
2022-11-26T23:38:47.876Z,4.72
2022-11-26T23:41:14.845Z,4.58
2022-11-26T23:43:41.900Z,4.70
2022-11-26T23:46:11.601Z,4.80
2022-11-26T23:48:47.671Z,4.65
2022-11-26T23:51:16.923Z,4.57
2022-11-26T23:53:45.655Z,4.69
2022-11-26T23:56:15.064Z,4.54
2022-11-26T23:58:47.838Z,4.56
